Time;durP1;ratioP1;P1;durP2;ratioP2;P2;SDS_P1;SDS_P2;PMS_P1;PMS_P2;Temp;Humidity;BMP_temperature;BMP_pressure;BME280_temperature;BME280_humidity;BME280_pressure;Samples;Min_cycle;Max_cycle;Signal;HPM_P1;HPM_P2
2023/01/09 00:01:31;;;;;;;2.25;1.20;;;;;;;5.90;100.00;99350.34;5061679;28;20033;-57
2023/01/09 00:03:56;;;;;;;1.15;1.00;;;;;;;5.90;100.00;99352.16;5059102;28;20180;-56
2023/01/09 00:06:21;;;;;;;1.02;0.88;;;;;;;5.86;100.00;99348.94;5060655;28;20108;-56
2023/01/09 00:08:47;;;;;;;1.20;1.00;;;;;;;5.84;100.00;99347.38;5060824;28;20078;-55
2023/01/09 00:11:12;;;;;;;1.17;1.00;;;;;;;5.81;100.00;99361.66;5072442;28;20025;-57
2023/01/09 00:13:38;;;;;;;1.17;1.08;;;;;;;5.78;100.00;99366.31;5070785;28;20035;-58
2023/01/09 00:16:04;;;;;;;2.13;1.20;;;;;;;5.73;100.00;99369.34;5055710;28;20056;-56
2023/01/09 00:18:30;;;;;;;2.65;1.10;;;;;;;5.70;100.00;99372.22;5059313;28;20068;-57
2023/01/09 00:20:59;;;;;;;4.50;1.20;;;;;;;5.65;100.00;99377.84;5059785;28;20025;-56
2023/01/09 00:23:24;;;;;;;3.20;1.73;;;;;;;5.63;100.00;99378.91;5059427;28;20038;-56
2023/01/09 00:25:49;;;;;;;2.42;1.30;;;;;;;5.58;100.00;99381.94;5053984;28;20028;-56
2023/01/09 00:28:14;;;;;;;3.72;1.33;;;;;;;5.55;100.00;99375.09;5060261;28;20060;-57
2023/01/09 00:30:40;;;;;;;1.35;1.15;;;;;;;5.52;100.00;99385.03;5059903;28;20478;-57
2023/01/09 00:33:05;;;;;;;2.00;1.17;;;;;;;5.48;100.00;99379.19;5057425;28;20123;-59
2023/01/09 00:35:30;;;;;;;1.20;1.10;;;;;;;5.46;100.00;99388.16;5056439;28;20376;-57
2023/01/09 00:37:56;;;;;;;2.35;1.50;;;;;;;5.44;100.00;99384.81;5054290;28;20029;-56
2023/01/09 00:40:21;;;;;;;1.85;1.20;;;;;;;5.40;100.00;99386.84;5067702;28;20079;-57
2023/01/09 00:42:50;;;;;;;1.35;1.23;;;;;;;5.35;100.00;99381.94;5059387;28;20115;-57
2023/01/09 00:45:21;;;;;;;2.30;1.13;;;;;;;5.32;100.00;99387.44;5057436;28;20123;-58
2023/01/09 00:47:50;;;;;;;1.30;1.20;;;;;;;5.30;100.00;99384.09;5058635;28;20159;-57
2023/01/09 00:50:22;;;;;;;1.70;1.30;;;;;;;5.26;100.00;99380.03;5059513;28;20051;-55
2023/01/09 00:52:48;;;;;;;3.17;1.40;;;;;;;5.21;100.00;99382.16;5059427;28;20033;-57
2023/01/09 00:55:14;;;;;;;2.83;1.20;;;;;;;5.18;100.00;99391.16;5066941;28;20025;-57
2023/01/09 00:57:40;;;;;;;5.93;1.58;;;;;;;5.14;100.00;99384.44;5059335;28;20436;-56
2023/01/09 01:00:07;;;;;;;1.38;1.27;;;;;;;5.12;100.00;99383.72;5067323;28;20024;-58
2023/01/09 01:02:33;;;;;;;1.20;1.10;;;;;;;5.09;100.00;99383.13;5060686;28;20465;-57
2023/01/09 01:07:43;;;;;;;1.52;1.30;;;;;;;5.03;100.00;99386.22;5058457;28;20071;-55
2023/01/09 01:10:15;;;;;;;2.83;1.20;;;;;;;4.98;100.00;99384.81;5063924;28;20096;-54
2023/01/09 01:12:41;;;;;;;2.78;1.30;;;;;;;4.97;100.00;99387.53;5057092;28;20035;-57
2023/01/09 01:15:09;;;;;;;3.60;1.55;;;;;;;4.93;100.00;99392.22;5055152;28;20096;-58
2023/01/09 01:17:36;;;;;;;3.17;1.50;;;;;;;4.92;100.00;99390.53;5056772;28;20040;-58
2023/01/09 01:20:02;;;;;;;3.10;1.58;;;;;;;4.90;100.00;99392.44;5066269;28;20032;-59
2023/01/09 01:22:27;;;;;;;3.17;1.52;;;;;;;4.85;100.00;99394.59;5056362;28;20080;-57
2023/01/09 01:24:53;;;;;;;3.92;1.63;;;;;;;4.84;100.00;99392.91;5052944;28;20025;-57
2023/01/09 01:27:18;;;;;;;4.47;1.63;;;;;;;4.82;100.00;99397.44;5057836;28;20033;-57
2023/01/09 01:29:43;;;;;;;4.13;1.33;;;;;;;4.80;100.00;99396.72;5057981;28;20055;-57
2023/01/09 01:32:10;;;;;;;5.13;1.80;;;;;;;4.79;100.00;99395.03;5057421;28;20493;-58
2023/01/09 01:34:36;;;;;;;2.45;1.50;;;;;;;4.77;100.00;99410.94;5062454;28;20071;-57
2023/01/09 01:37:01;;;;;;;3.17;1.55;;;;;;;4.75;100.00;99404.97;5061629;28;20430;-59
2023/01/09 01:39:26;;;;;;;3.08;1.75;;;;;;;4.74;100.00;99411.16;5057692;28;20021;-54
2023/01/09 01:41:52;;;;;;;6.63;1.95;;;;;;;4.73;100.00;99406.00;5062665;28;20481;-56
2023/01/09 01:44:55;;;;;;;3.72;1.48;;;;;;;4.72;100.00;99415.72;5068725;28;20075;-58
2023/01/09 01:47:24;;;;;;;2.20;1.77;;;;;;;4.68;100.00;99410.78;5063870;28;20032;-54
2023/01/09 01:49:49;;;;;;;4.68;1.98;;;;;;;4.68;100.00;99421.31;5055646;28;20047;-57
2023/01/09 01:52:16;;;;;;;2.88;1.80;;;;;;;4.64;100.00;99418.91;5065710;28;20025;-56
2023/01/09 01:54:42;;;;;;;3.75;1.58;;;;;;;4.61;100.00;99421.78;5072190;28;20414;-58
2023/01/09 01:57:08;;;;;;;3.85;1.90;;;;;;;4.59;100.00;99409.69;5060280;28;20032;-55
2023/01/09 01:59:37;;;;;;;2.38;1.73;;;;;;;4.56;100.00;99416.03;5060476;28;20032;-53
2023/01/09 02:02:03;;;;;;;3.75;1.77;;;;;;;4.54;100.00;99415.28;5050221;28;20037;-56
2023/01/09 02:04:32;;;;;;;2.28;1.60;;;;;;;4.52;100.00;99419.81;5060786;28;20395;-56
2023/01/09 02:07:01;;;;;;;7.10;2.00;;;;;;;4.49;100.00;99417.44;5059498;28;20036;-57
2023/01/09 02:09:26;;;;;;;5.68;2.30;;;;;;;4.48;100.00;99421.03;5058175;28;20032;-57
2023/01/09 02:11:55;;;;;;;3.65;2.03;;;;;;;4.45;100.00;99421.25;5058598;28;20033;-57
2023/01/09 02:14:24;;;;;;;4.28;2.08;;;;;;;4.44;100.00;99422.19;5046614;28;20410;-57
2023/01/09 02:17:06;;;;;;;4.57;2.00;;;;;;;4.41;100.00;99422.41;5057851;28;20127;-57
2023/01/09 02:20:10;;;;;;;3.95;1.80;;;;;;;4.38;100.00;99422.63;5056010;28;20047;-57
2023/01/09 02:23:11;;;;;;;2.58;1.70;;;;;;;4.37;100.00;99421.81;5057689;28;20029;-56
2023/01/09 02:26:24;;;;;;;6.20;1.95;;;;;;;4.34;100.00;99410.69;5056751;28;20585;-57
2023/01/09 02:28:55;;;;;;;6.90;1.65;;;;;;;4.30;100.00;99419.72;5057151;28;20029;-57
2023/01/09 02:31:31;;;;;;;4.30;1.60;;;;;;;4.27;100.00;99418.19;5058278;28;20035;-57
2023/01/09 02:34:27;;;;;;;4.45;1.80;;;;;;;4.24;100.00;99411.34;5052112;28;20037;-57
2023/01/09 02:37:14;;;;;;;5.80;2.45;;;;;;;4.22;100.00;99408.00;5056806;28;20021;-57
2023/01/09 02:39:53;;;;;;;2.63;1.85;;;;;;;4.20;100.00;99409.91;5065665;28;20033;-57
2023/01/09 02:42:24;;;;;;;4.05;1.75;;;;;;;4.19;100.00;99413.47;5059009;28;20418;-56
2023/01/09 02:44:49;;;;;;;2.38;1.80;;;;;;;4.16;100.00;99408.44;5058842;28;20025;-57
2023/01/09 02:47:15;;;;;;;3.78;1.92;;;;;;;4.14;100.00;99412.97;5062302;28;20029;-57
2023/01/09 02:49:43;;;;;;;3.43;1.70;;;;;;;4.13;100.00;99413.09;5055028;28;20025;-58
2023/01/09 02:52:20;;;;;;;2.25;1.95;;;;;;;4.12;100.00;99416.69;5057108;28;20275;-57
2023/01/09 02:55:16;;;;;;;3.28;1.73;;;;;;;4.11;100.00;99402.69;5057558;28;20091;-57
2023/01/09 02:58:09;;;;;;;7.30;2.47;;;;;;;4.06;100.00;99394.28;5047918;28;20031;-57
2023/01/09 03:01:13;;;;;;;4.95;2.15;;;;;;;4.06;100.00;99389.91;5057401;28;20040;-56
2023/01/09 03:03:53;;;;;;;5.75;2.30;;;;;;;4.04;100.00;99399.66;5049557;28;20580;-57
2023/01/09 03:06:29;;;;;;;3.08;2.15;;;;;;;4.01;100.00;99384.16;5050072;28;20040;-57
2023/01/09 03:09:07;;;;;;;4.60;2.38;;;;;;;4.01;100.00;99385.91;5057206;28;20033;-57
2023/01/09 03:11:42;;;;;;;6.30;2.15;;;;;;;3.99;100.00;99390.44;5047700;28;20483;-56
2023/01/09 03:14:15;;;;;;;6.43;2.40;;;;;;;3.99;100.00;99395.69;5057070;28;20017;-57
2023/01/09 03:16:43;;;;;;;9.30;2.40;;;;;;;3.95;100.00;99400.34;5072337;28;20051;-57
2023/01/09 03:19:12;;;;;;;8.40;2.70;;;;;;;3.95;100.00;99402.16;5055840;28;20031;-57
2023/01/09 03:21:39;;;;;;;5.88;2.40;;;;;;;3.93;100.00;99404.03;5054750;28;20033;-55
2023/01/09 03:24:05;;;;;;;4.80;2.70;;;;;;;3.93;100.00;99401.38;5057601;28;20462;-56
2023/01/09 03:26:30;;;;;;;10.32;2.53;;;;;;;3.90;100.00;99407.72;5056451;28;20103;-56
2023/01/09 03:28:57;;;;;;;5.57;2.72;;;;;;;3.90;100.00;99410.34;5052587;28;20475;-56
2023/01/09 03:31:23;;;;;;;3.80;2.88;;;;;;;3.90;100.00;99410.34;5060156;28;20047;-58
2023/01/09 03:33:48;;;;;;;5.15;2.78;;;;;;;3.88;100.00;99410.47;5053341;28;20076;-56
2023/01/09 03:36:16;;;;;;;6.75;2.60;;;;;;;3.88;100.00;99405.19;5056776;28;20049;-57
2023/01/09 03:38:41;;;;;;;9.65;2.92;;;;;;;3.89;100.00;99398.16;5066165;28;20060;-56
2023/01/09 03:41:07;;;;;;;4.47;2.72;;;;;;;3.88;100.00;99405.19;5051531;28;20026;-56
2023/01/09 03:43:33;;;;;;;5.55;2.50;;;;;;;3.88;100.00;99402.56;5056060;28;20032;-57
2023/01/09 03:45:59;;;;;;;7.15;2.42;;;;;;;3.93;100.00;99406.63;5059134;28;20029;-58
2023/01/09 03:48:24;;;;;;;8.70;2.70;;;;;;;3.93;100.00;99410.13;5028990;28;20439;-57
2023/01/09 03:50:51;;;;;;;6.50;2.63;;;;;;;3.95;100.00;99412.66;5040698;28;20025;-56
2023/01/09 03:53:19;;;;;;;7.25;2.47;;;;;;;3.96;100.00;99409.88;5055168;28;20237;-57
2023/01/09 03:55:46;;;;;;;4.90;2.50;;;;;;;3.99;100.00;99406.22;5052127;28;20357;-57
2023/01/09 03:58:12;;;;;;;6.63;2.40;;;;;;;3.99;100.00;99414.09;5046624;28;20108;-57
2023/01/09 04:00:39;;;;;;;4.10;2.28;;;;;;;4.01;100.00;99414.81;5054387;28;20029;-57
2023/01/09 04:03:05;;;;;;;4.68;2.40;;;;;;;4.00;100.00;99407.91;5054661;28;20108;-56
2023/01/09 04:05:30;;;;;;;5.13;2.50;;;;;;;4.01;100.00;99405.16;5048034;28;20484;-56
2023/01/09 04:07:55;;;;;;;5.53;2.50;;;;;;;4.02;100.00;99413.88;5049220;28;20036;-57
2023/01/09 04:10:21;;;;;;;6.15;2.40;;;;;;;4.02;100.00;99412.06;5051897;28;20098;-57
2023/01/09 04:12:46;;;;;;;11.23;2.47;;;;;;;4.05;100.00;99403.16;5065941;28;20029;-57
2023/01/09 04:15:11;;;;;;;8.93;2.60;;;;;;;4.07;100.00;99407.31;5055032;28;20048;-56
2023/01/09 04:17:37;;;;;;;4.47;2.17;;;;;;;4.12;100.00;99396.50;5055905;28;20107;-57
2023/01/09 04:20:02;;;;;;;5.72;2.30;;;;;;;4.16;100.00;99399.72;5050339;28;20048;-57
2023/01/09 04:22:28;;;;;;;4.47;2.05;;;;;;;4.18;100.00;99403.94;5043324;28;20029;-57
2023/01/09 04:24:53;;;;;;;3.92;2.03;;;;;;;4.22;100.00;99402.75;5054962;28;20021;-57
2023/01/09 04:27:18;;;;;;;5.95;2.22;;;;;;;4.26;100.00;99414.72;5055814;28;20120;-56
2023/01/09 04:29:44;;;;;;;5.03;2.25;;;;;;;4.31;100.00;99411.72;5043819;28;20052;-55
2023/01/09 04:32:09;;;;;;;5.25;2.15;;;;;;;4.35;100.00;99400.06;5055104;28;20017;-57
2023/01/09 04:34:34;;;;;;;5.93;2.17;;;;;;;4.38;100.00;99398.97;5055086;28;20025;-57
2023/01/09 04:36:59;;;;;;;5.88;2.28;;;;;;;4.42;100.00;99403.91;5045079;28;20476;-57
2023/01/09 04:39:25;;;;;;;9.15;2.75;;;;;;;4.47;100.00;99414.06;5056615;28;20119;-57
2023/01/09 04:41:50;;;;;;;11.73;2.35;;;;;;;4.50;100.00;99413.03;5061664;28;20056;-58
2023/01/09 04:44:21;;;;;;;9.18;2.30;;;;;;;4.53;100.00;99405.75;5045309;28;20364;-56
2023/01/09 04:46:47;;;;;;;5.45;2.40;;;;;;;4.56;100.00;99407.28;5054584;28;20029;-57
2023/01/09 04:49:12;;;;;;;9.25;2.30;;;;;;;4.61;100.00;99408.63;5054478;28;20021;-56
2023/01/09 04:51:37;;;;;;;10.88;3.45;;;;;;;4.63;100.00;99414.63;5052331;28;20408;-57
2023/01/09 04:54:03;;;;;;;5.47;2.03;;;;;;;4.66;100.00;99420.59;5054511;28;20486;-56
2023/01/09 04:56:28;;;;;;;5.28;2.08;;;;;;;4.70;100.00;99414.16;5043600;28;20033;-57
2023/01/09 04:58:53;;;;;;;10.77;2.38;;;;;;;4.74;100.00;99416.44;5050120;28;20430;-56
2023/01/09 05:01:19;;;;;;;6.85;2.22;;;;;;;4.75;100.00;99407.59;5047347;28;20029;-57
2023/01/09 05:03:44;;;;;;;9.60;2.45;;;;;;;4.76;100.00;99409.28;5054630;28;20061;-57
2023/01/09 05:06:10;;;;;;;10.15;2.50;;;;;;;4.78;100.00;99398.63;5055537;28;20479;-57
2023/01/09 05:08:35;;;;;;;4.13;2.00;;;;;;;4.80;100.00;99413.34;5046957;28;20029;-57
2023/01/09 05:11:00;;;;;;;8.63;2.90;;;;;;;4.81;100.00;99398.38;5059810;28;20028;-56
2023/01/09 05:13:27;;;;;;;10.95;2.55;;;;;;;4.84;100.00;99394.69;5059698;28;20044;-57
2023/01/09 05:15:52;;;;;;;10.57;2.90;;;;;;;4.88;100.00;99394.34;5054797;28;20506;-56
2023/01/09 05:18:17;;;;;;;4.93;2.08;;;;;;;4.90;100.00;99392.44;5060121;28;20033;-57
2023/01/09 05:20:42;;;;;;;6.75;2.58;;;;;;;4.92;100.00;99401.03;5059685;28;20052;-57
2023/01/09 05:23:08;;;;;;;8.23;2.40;;;;;;;4.94;100.00;99398.31;5048885;28;20033;-56
2023/01/09 05:25:33;;;;;;;8.57;2.40;;;;;;;4.97;100.00;99400.69;5060032;28;20124;-56
2023/01/09 05:28:00;;;;;;;9.50;2.88;;;;;;;5.02;100.00;99395.91;5058119;28;20025;-57
2023/01/09 05:30:26;;;;;;;7.63;1.98;;;;;;;5.04;100.00;99398.44;5070096;28;20024;-56
2023/01/09 05:32:51;;;;;;;7.90;2.22;;;;;;;5.07;100.00;99403.47;5060010;28;20039;-53
2023/01/09 05:35:16;;;;;;;9.48;2.58;;;;;;;5.12;100.00;99399.53;5058573;28;20056;-56
2023/01/09 05:37:41;;;;;;;5.38;2.40;;;;;;;5.13;100.00;99390.69;5062810;28;20020;-57
2023/01/09 05:40:07;;;;;;;12.75;2.65;;;;;;;5.14;100.00;99387.06;5058739;28;20109;-54
2023/01/09 05:42:33;;;;;;;11.48;2.63;;;;;;;5.18;100.00;99385.88;5058696;28;20028;-57
2023/01/09 05:44:58;;;;;;;12.25;2.50;;;;;;;5.21;100.00;99378.72;5055852;28;20037;-54
2023/01/09 05:47:23;;;;;;;11.90;2.50;;;;;;;5.24;100.00;99383.75;5061984;28;20539;-56
2023/01/09 05:49:49;;;;;;;8.38;2.10;;;;;;;5.27;100.00;99376.44;5066302;28;20036;-56
2023/01/09 05:52:14;;;;;;;7.95;2.10;;;;;;;5.30;100.00;99378.00;5064167;28;20052;-57
2023/01/09 05:54:39;;;;;;;6.32;2.00;;;;;;;5.31;100.00;99375.25;5066019;28;20033;-56
2023/01/09 05:57:04;;;;;;;9.40;2.08;;;;;;;5.33;100.00;99373.31;5050761;28;20103;-56
2023/01/09 05:59:30;;;;;;;6.63;2.45;;;;;;;5.35;100.00;99381.94;5071894;28;20036;-55
2023/01/09 06:01:55;;;;;;;8.98;2.00;;;;;;;5.37;100.00;99380.00;5054502;28;20025;-56
2023/01/09 06:04:21;;;;;;;11.45;2.75;;;;;;;5.41;100.00;99382.41;5063116;28;20470;-56
2023/01/09 06:06:46;;;;;;;9.25;2.70;;;;;;;5.41;100.00;99377.97;5062993;28;20052;-56
2023/01/09 06:09:11;;;;;;;10.18;2.60;;;;;;;5.45;100.00;99383.88;5064626;28;20044;-56
2023/01/09 06:11:37;;;;;;;9.05;2.10;;;;;;;5.46;100.00;99367.09;5062067;28;20108;-57
2023/01/09 06:14:04;;;;;;;9.18;2.08;;;;;;;5.48;100.00;99359.91;5069748;28;20052;-54
2023/01/09 06:16:29;;;;;;;10.45;2.42;;;;;;;5.51;100.00;99381.59;5067171;28;20040;-56
2023/01/09 06:18:54;;;;;;;11.07;2.38;;;;;;;5.56;100.00;99378.56;5063627;28;20032;-55
2023/01/09 06:21:20;;;;;;;9.27;2.40;;;;;;;5.58;100.00;99374.03;5068137;28;20035;-53
2023/01/09 06:23:45;;;;;;;13.35;2.45;;;;;;;5.59;100.00;99375.69;5063647;28;20029;-56
2023/01/09 06:26:10;;;;;;;5.40;2.40;;;;;;;5.60;100.00;99377.38;5058925;28;20041;-56
2023/01/09 06:28:35;;;;;;;13.57;2.30;;;;;;;5.63;100.00;99381.53;5054306;28;20117;-55
2023/01/09 06:31:01;;;;;;;13.02;2.80;;;;;;;5.63;100.00;99371.00;5066215;28;20376;-55
2023/01/09 06:33:26;;;;;;;12.00;2.63;;;;;;;5.68;100.00;99379.38;5053378;28;20032;-57
2023/01/09 06:35:51;;;;;;;11.18;2.20;;;;;;;5.70;100.00;99390.66;5060244;28;20020;-55
2023/01/09 06:38:17;;;;;;;10.27;2.45;;;;;;;5.72;100.00;99391.38;5060320;28;20025;-57
2023/01/09 06:40:42;;;;;;;10.80;2.42;;;;;;;5.74;100.00;99389.44;5048943;28;20036;-57
2023/01/09 06:43:07;;;;;;;8.25;2.20;;;;;;;5.75;100.00;99386.69;5060612;28;20025;-56
2023/01/09 06:45:33;;;;;;;9.93;2.33;;;;;;;5.78;100.00;99385.63;5061809;28;20137;-56
2023/01/09 06:47:58;;;;;;;12.13;2.70;;;;;;;5.81;100.00;99393.28;5060028;28;20079;-56
2023/01/09 06:50:23;;;;;;;5.70;2.10;;;;;;;5.84;100.00;99392.19;5059326;28;20032;-53
2023/01/09 06:52:48;;;;;;;6.93;2.20;;;;;;;5.84;100.00;99385.09;5061200;28;20108;-57
2023/01/09 06:55:16;;;;;;;9.60;2.03;;;;;;;5.87;100.00;99389.31;5069916;28;20017;-57
2023/01/09 06:57:41;;;;;;;8.90;2.35;;;;;;;5.90;100.00;99391.69;5050358;28;20033;-56
2023/01/09 07:00:07;;;;;;;10.57;2.40;;;;;;;5.92;100.00;99397.66;5060332;28;20392;-57
2023/01/09 07:02:32;;;;;;;9.18;2.20;;;;;;;5.96;100.00;99395.63;5051003;28;20025;-53
2023/01/09 07:04:58;;;;;;;9.65;1.98;;;;;;;5.98;100.00;99402.50;5055678;28;20022;-56
2023/01/09 07:07:23;;;;;;;4.93;1.90;;;;;;;6.00;100.00;99411.09;5048767;28;20037;-56
2023/01/09 07:09:49;;;;;;;12.90;2.22;;;;;;;6.02;100.00;99406.53;5052492;28;20033;-53
2023/01/09 07:12:14;;;;;;;8.15;2.15;;;;;;;6.01;100.00;99415.41;5055935;28;20021;-55
2023/01/09 07:14:39;;;;;;;7.43;2.20;;;;;;;6.00;100.00;99408.47;5060537;28;20025;-56
2023/01/09 07:17:05;;;;;;;7.72;2.17;;;;;;;5.99;100.00;99416.50;5060310;28;20155;-56
2023/01/09 07:19:30;;;;;;;7.05;2.33;;;;;;;5.97;100.00;99429.78;5057535;28;20559;-57
2023/01/09 07:21:56;;;;;;;7.60;2.13;;;;;;;5.95;100.00;99439.59;5048535;28;20045;-57
2023/01/09 07:24:21;;;;;;;13.27;2.53;;;;;;;5.95;100.00;99442.22;5053530;28;20029;-57
2023/01/09 07:26:46;;;;;;;10.07;2.72;;;;;;;5.93;100.00;99439.72;5053624;28;20048;-56
2023/01/09 07:29:12;;;;;;;7.78;2.22;;;;;;;5.91;100.00;99444.28;5049267;28;20032;-57
2023/01/09 07:31:37;;;;;;;6.45;2.20;;;;;;;5.89;100.00;99443.53;5049644;28;20064;-56
2023/01/09 07:34:03;;;;;;;10.35;2.58;;;;;;;5.87;100.00;99455.19;5056482;28;20064;-56
2023/01/09 07:36:28;;;;;;;10.70;2.47;;;;;;;5.89;100.00;99456.72;5052478;28;20054;-57
2023/01/09 07:38:53;;;;;;;6.63;2.55;;;;;;;5.85;100.00;99462.38;5051371;28;20057;-57
2023/01/09 07:41:18;;;;;;;9.57;2.95;;;;;;;5.86;100.00;99458.75;5051412;28;20041;-56
2023/01/09 07:43:44;;;;;;;8.95;2.53;;;;;;;5.83;100.00;99459.84;5046067;28;20103;-57
2023/01/09 07:46:09;;;;;;;8.73;2.25;;;;;;;5.83;100.00;99461.63;5047573;28;20463;-55
2023/01/09 07:48:34;;;;;;;10.07;2.72;;;;;;;5.82;100.00;99468.72;5048288;28;20025;-56
2023/01/09 07:51:00;;;;;;;10.60;2.58;;;;;;;5.82;100.00;99473.16;5053350;28;20040;-56
2023/01/09 07:53:25;;;;;;;8.20;2.10;;;;;;;5.82;100.00;99473.16;5045454;28;20120;-55
2023/01/09 07:55:50;;;;;;;8.90;2.42;;;;;;;5.84;100.00;99484.41;5047948;28;20047;-55
2023/01/09 07:58:16;;;;;;;10.02;2.88;;;;;;;5.84;100.00;99477.31;5041064;28;20128;-54
2023/01/09 08:00:41;;;;;;;6.82;2.40;;;;;;;5.84;100.00;99484.41;5036781;28;20394;-56
2023/01/09 08:03:06;;;;;;;8.60;2.65;;;;;;;5.85;100.00;99483.44;5036553;28;20025;-56
2023/01/09 08:05:32;;;;;;;9.10;2.60;;;;;;;5.84;100.00;99492.31;5034107;28;20021;-57
2023/01/09 08:07:57;;;;;;;6.85;2.67;;;;;;;5.83;100.00;99502.00;5037295;28;20025;-56
2023/01/09 08:10:22;;;;;;;6.93;2.80;;;;;;;5.83;100.00;99502.00;5040351;28;20051;-56
2023/01/09 08:12:48;;;;;;;7.88;2.88;;;;;;;5.83;100.00;99499.38;5038383;28;20040;-55
2023/01/09 08:15:14;;;;;;;11.77;2.83;;;;;;;5.81;100.00;99503.06;5038846;28;20059;-57
2023/01/09 08:17:41;;;;;;;10.52;3.13;;;;;;;5.82;100.00;99504.75;5039171;28;20048;-55
2023/01/09 08:20:10;;;;;;;10.40;2.47;;;;;;;5.81;100.00;99516.25;5038099;28;20132;-55
2023/01/09 08:22:35;;;;;;;6.63;2.50;;;;;;;5.82;100.00;99510.88;5036433;28;20553;-57
2023/01/09 08:25:01;;;;;;;8.43;2.78;;;;;;;5.82;100.00;99524.03;5040518;28;20045;-55
2023/01/09 08:27:26;;;;;;;7.10;3.00;;;;;;;5.82;100.00;99523.22;5037817;28;20049;-56
2023/01/09 08:29:51;;;;;;;8.77;3.08;;;;;;;5.82;100.00;99534.56;5042246;28;20037;-54
2023/01/09 08:32:17;;;;;;;7.30;2.63;;;;;;;5.82;100.00;99533.75;5044208;28;20059;-57
2023/01/09 08:34:42;;;;;;;7.25;2.92;;;;;;;5.82;100.00;99546.94;5040666;28;20022;-55
2023/01/09 08:37:07;;;;;;;8.35;2.78;;;;;;;5.83;100.00;99553.84;5045931;28;21354;-56
2023/01/09 08:39:34;;;;;;;10.35;3.15;;;;;;;5.84;100.00;99555.53;5045594;28;20102;-57
2023/01/09 08:47:32;;;;;;;9.77;3.05;;;;;;;5.81;100.00;99566.31;5037295;28;20107;-56
2023/01/09 08:49:57;;;;;;;9.02;2.90;;;;;;;5.81;100.00;99564.53;5046532;28;20116;-57
2023/01/09 08:52:23;;;;;;;8.80;3.20;;;;;;;5.81;100.00;99567.19;5051758;28;20061;-56
2023/01/09 08:54:48;;;;;;;9.85;2.70;;;;;;;5.80;100.00;99586.56;5050748;28;20033;-56
2023/01/09 08:57:14;;;;;;;7.97;2.95;;;;;;;5.81;100.00;99576.84;5035714;28;20036;-55
2023/01/09 08:59:40;;;;;;;10.68;3.17;;;;;;;5.80;100.00;99599.75;5041669;28;20081;-56
2023/01/09 09:02:05;;;;;;;8.30;2.90;;;;;;;5.80;100.00;99596.28;5046826;28;20047;-55
2023/01/09 09:04:30;;;;;;;8.00;2.83;;;;;;;5.81;100.00;99603.19;5046242;28;20025;-56
2023/01/09 09:06:56;;;;;;;5.97;2.85;;;;;;;5.80;100.00;99604.19;5053999;28;20084;-55
2023/01/09 09:09:21;;;;;;;7.75;2.92;;;;;;;5.81;100.00;99619.00;5054009;28;20040;-57
2023/01/09 09:11:46;;;;;;;8.05;3.00;;;;;;;5.80;100.00;99623.44;5057872;28;20025;-55
2023/01/09 09:17:04;;;;;;;8.40;2.88;;;;;;;5.82;100.00;99626.81;5029975;28;20097;-56
2023/01/09 09:19:29;;;;;;;8.10;2.80;;;;;;;5.83;100.00;99633.75;5053469;28;20041;-57
2023/01/09 09:21:54;;;;;;;9.23;3.13;;;;;;;5.83;100.00;99643.44;5044448;28;20017;-56
2023/01/09 09:24:20;;;;;;;8.13;2.78;;;;;;;5.84;100.00;99639.84;5049594;28;20364;-57
2023/01/09 09:26:45;;;;;;;7.32;3.10;;;;;;;5.82;100.00;99641.78;5048905;28;20032;-56
2023/01/09 09:29:10;;;;;;;6.22;2.80;;;;;;;5.83;100.00;99649.56;5047334;28;20025;-57
2023/01/09 09:31:37;;;;;;;8.45;3.28;;;;;;;5.83;100.00;99653.97;5043966;28;20025;-52
2023/01/09 09:34:04;;;;;;;5.95;2.95;;;;;;;5.83;100.00;99656.63;5050775;28;20052;-55
2023/01/09 09:36:29;;;;;;;7.32;3.13;;;;;;;5.82;100.00;99663.69;5047654;28;20079;-56
2023/01/09 09:38:55;;;;;;;13.15;3.22;;;;;;;5.82;100.00;99668.13;5047613;28;20088;-56
2023/01/09 09:44:56;;;;;;;5.05;3.30;;;;;;;5.85;100.00;99674.00;5048809;28;20040;-56
2023/01/09 09:47:30;;;;;;;8.05;3.50;;;;;;;5.84;100.00;99693.38;5036481;28;20029;-55
2023/01/09 09:50:14;;;;;;;5.95;3.38;;;;;;;5.87;100.00;99694.97;5047678;28;20061;-55
2023/01/09 09:53:18;;;;;;;8.68;3.83;;;;;;;5.86;100.00;99691.50;5061246;28;20025;-56
2023/01/09 09:55:47;;;;;;;7.53;3.55;;;;;;;5.88;100.00;99705.41;5048467;28;20045;-55
2023/01/09 09:58:33;;;;;;;12.48;3.90;;;;;;;5.91;100.00;99717.50;5065291;28;20025;-55
2023/01/09 10:00:59;;;;;;;10.32;4.03;;;;;;;5.93;100.00;99718.22;5054914;28;20021;-53
2023/01/09 10:03:31;;;;;;;12.00;4.15;;;;;;;5.95;100.00;99726.03;5061586;28;20025;-53
2023/01/09 10:05:59;;;;;;;8.32;3.90;;;;;;;5.95;100.00;99731.31;5057405;28;20021;-55
2023/01/09 10:08:44;;;;;;;8.68;4.47;;;;;;;5.99;100.00;99740.66;5048050;28;20040;-55
2023/01/09 10:11:17;;;;;;;9.40;4.40;;;;;;;6.02;100.00;99749.19;5054203;28;20033;-54
2023/01/09 10:16:46;;;;;;;8.63;4.90;;;;;;;6.07;100.00;99754.94;5043465;28;20052;-54
2023/01/09 10:19:33;;;;;;;10.02;4.75;;;;;;;6.07;100.00;99754.94;5047746;28;20084;-55
2023/01/09 10:22:23;;;;;;;11.77;4.60;;;;;;;6.10;100.00;99753.91;5044874;28;20085;-57
2023/01/09 10:24:57;;;;;;;7.65;4.50;;;;;;;6.11;100.00;99766.97;5051800;28;20449;-56
2023/01/09 10:27:35;;;;;;;9.98;4.40;;;;;;;6.13;100.00;99771.25;5048024;28;20063;-54
2023/01/09 10:30:12;;;;;;;10.73;4.85;;;;;;;6.14;100.00;99770.31;5047224;28;20368;-55
2023/01/09 10:33:00;;;;;;;10.82;4.65;;;;;;;6.14;100.00;99768.50;5044723;28;20051;-57
2023/01/09 10:35:36;;;;;;;9.55;4.32;;;;;;;6.14;100.00;99772.94;5054851;28;20039;-53
2023/01/09 10:38:05;;;;;;;9.82;4.88;;;;;;;6.14;100.00;99776.41;5053016;28;20091;-53
2023/01/09 10:40:44;;;;;;;7.57;4.18;;;;;;;6.16;100.00;99781.56;5061516;28;20025;-56
2023/01/09 10:43:28;;;;;;;9.40;4.40;;;;;;;6.16;100.00;99774.53;5048876;28;20132;-57
2023/01/09 10:45:59;;;;;;;13.13;4.15;;;;;;;6.16;100.00;99773.66;5045524;28;20052;-53
2023/01/09 10:48:35;;;;;;;7.22;3.97;;;;;;;6.18;100.00;99779.66;5046544;28;20037;-54
2023/01/09 10:51:02;;;;;;;11.07;3.90;;;;;;;6.17;100.00;99778.00;5045921;28;20029;-54
2023/01/09 10:53:35;;;;;;;8.48;4.10;;;;;;;6.16;100.00;99782.44;5044007;28;20100;-52
2023/01/09 10:56:16;;;;;;;12.80;4.47;;;;;;;6.20;100.00;99783.88;5039734;28;20025;-54
2023/01/09 10:58:41;;;;;;;11.15;5.13;;;;;;;6.28;100.00;99794.69;5047664;28;20108;-55
2023/01/09 11:01:08;;;;;;;11.18;4.88;;;;;;;6.35;100.00;99783.69;5039796;28;20485;-53
2023/01/09 11:03:33;;;;;;;10.50;3.78;;;;;;;6.40;100.00;99792.06;5041347;28;20033;-55
2023/01/09 11:06:02;;;;;;;10.57;4.80;;;;;;;6.45;100.00;99805.75;5042964;28;20067;-52
2023/01/09 11:08:32;;;;;;;8.00;4.22;;;;;;;6.47;100.00;99793.28;5045954;28;20029;-54
2023/01/09 11:11:00;;;;;;;10.75;4.25;;;;;;;6.47;100.00;99798.56;5054609;28;20798;-53
2023/01/09 11:13:28;;;;;;;10.13;4.22;;;;;;;6.49;100.00;99796.63;5054635;28;20183;-55
2023/01/09 11:16:04;;;;;;;9.52;4.05;;;;;;;6.54;100.00;99789.22;5006151;28;20073;-56
2023/01/09 11:18:30;;;;;;;9.60;4.35;;;;;;;6.57;100.00;99796.91;5045276;28;20022;-55
2023/01/09 11:20:55;;;;;;;11.35;4.53;;;;;;;6.60;100.00;99793.19;5047082;28;20068;-52
2023/01/09 11:23:32;;;;;;;11.10;4.72;;;;;;;6.67;100.00;99802.31;5049977;28;20078;-54
2023/01/09 11:26:00;;;;;;;9.77;4.85;;;;;;;6.73;100.00;99800.97;5044130;28;21097;-53
2023/01/09 11:28:26;;;;;;;11.63;5.20;;;;;;;6.80;100.00;99791.66;5049263;28;20033;-52
2023/01/09 11:31:00;;;;;;;10.38;4.95;;;;;;;6.84;100.00;99807.13;5047638;28;20341;-54
2023/01/09 11:33:29;;;;;;;10.38;5.00;;;;;;;6.93;100.00;99820.53;5050980;28;20044;-52
2023/01/09 11:36:02;;;;;;;10.77;5.33;;;;;;;6.98;100.00;99824.53;5054343;28;20029;-53
2023/01/09 11:38:30;;;;;;;11.32;5.15;;;;;;;7.01;100.00;99824.28;5047421;28;20021;-51
2023/01/09 11:40:59;;;;;;;9.93;4.60;;;;;;;7.01;100.00;99826.06;5050895;28;20394;-52
2023/01/09 11:43:32;;;;;;;12.27;4.53;;;;;;;7.02;100.00;99835.69;5057568;28;20037;-52
2023/01/09 11:46:00;;;;;;;12.77;4.97;;;;;;;7.02;100.00;99833.03;5055791;28;20024;-51
2023/01/09 11:48:31;;;;;;;10.32;5.35;;;;;;;7.04;100.00;99842.53;5058614;28;20048;-53
2023/01/09 11:50:58;;;;;;;12.40;5.15;;;;;;;7.06;100.00;99845.06;5060285;28;20042;-52
2023/01/09 11:53:25;;;;;;;9.70;4.85;;;;;;;7.07;100.00;99849.38;5073613;28;20068;-56
2023/01/09 11:56:11;;;;;;;11.90;5.10;;;;;;;7.08;100.00;99847.56;5052904;28;20025;-54